sensor_id;sensor_type;location;lat;lon;timestamp;temperature;humidity
33594;DHT22;19920;52.242;20.940;2023-05-16T00:01:27;12.20;99.90
33594;DHT22;19920;52.242;20.940;2023-05-16T00:03:55;12.30;99.90
33594;DHT22;19920;52.242;20.940;2023-05-16T00:06:21;12.30;99.90
33594;DHT22;19920;52.242;20.940;2023-05-16T00:08:48;12.40;99.90
33594;DHT22;19920;52.242;20.940;2023-05-16T00:11:16;12.40;99.90
33594;DHT22;19920;52.242;20.940;2023-05-16T00:13:41;12.40;99.90
33594;DHT22;19920;52.242;20.940;2023-05-16T00:16:07;12.40;99.90
33594;DHT22;19920;52.242;20.940;2023-05-16T00:18:34;12.40;99.90
33594;DHT22;19920;52.242;20.940;2023-05-16T00:21:02;12.40;99.90
33594;DHT22;19920;52.242;20.940;2023-05-16T00:23:29;12.40;99.90
33594;DHT22;19920;52.242;20.940;2023-05-16T00:25:55;12.50;99.90
33594;DHT22;19920;52.242;20.940;2023-05-16T00:28:21;12.50;99.90
33594;DHT22;19920;52.242;20.940;2023-05-16T00:30:46;12.50;99.90
33594;DHT22;19920;52.242;20.940;2023-05-16T00:33:12;12.50;99.90
33594;DHT22;19920;52.242;20.940;2023-05-16T00:35:38;12.60;99.90
33594;DHT22;19920;52.242;20.940;2023-05-16T00:38:04;12.50;99.90
33594;DHT22;19920;52.242;20.940;2023-05-16T00:40:29;12.40;99.90
33594;DHT22;19920;52.242;20.940;2023-05-16T00:42:55;12.40;99.90
33594;DHT22;19920;52.242;20.940;2023-05-16T00:45:21;12.30;99.90
33594;DHT22;19920;52.242;20.940;2023-05-16T00:47:47;12.30;99.90
33594;DHT22;19920;52.242;20.940;2023-05-16T00:50:12;12.40;99.90
33594;DHT22;19920;52.242;20.940;2023-05-16T00:52:38;12.30;99.90
33594;DHT22;19920;52.242;20.940;2023-05-16T00:55:04;12.40;99.90
33594;DHT22;19920;52.242;20.940;2023-05-16T00:57:30;12.40;99.90
33594;DHT22;19920;52.242;20.940;2023-05-16T00:59:56;12.50;99.90
33594;DHT22;19920;52.242;20.940;2023-05-16T01:02:22;12.50;99.90
33594;DHT22;19920;52.242;20.940;2023-05-16T01:04:48;12.50;99.90
33594;DHT22;19920;52.242;20.940;2023-05-16T01:07:16;12.50;99.90
33594;DHT22;19920;52.242;20.940;2023-05-16T01:09:41;12.60;99.90
33594;DHT22;19920;52.242;20.940;2023-05-16T01:15:24;12.50;99.90
33594;DHT22;19920;52.242;20.940;2023-05-16T01:18:11;12.50;99.90
33594;DHT22;19920;52.242;20.940;2023-05-16T01:28:17;12.40;99.90
33594;DHT22;19920;52.242;20.940;2023-05-16T01:30:43;12.40;99.90
33594;DHT22;19920;52.242;20.940;2023-05-16T01:33:09;12.50;99.90
33594;DHT22;19920;52.242;20.940;2023-05-16T01:35:42;12.50;99.90
33594;DHT22;19920;52.242;20.940;2023-05-16T01:38:21;12.50;99.90
33594;DHT22;19920;52.242;20.940;2023-05-16T01:43:18;12.60;99.90
33594;DHT22;19920;52.242;20.940;2023-05-16T01:45:56;12.60;99.90
33594;DHT22;19920;52.242;20.940;2023-05-16T01:48:31;12.60;99.90
33594;DHT22;19920;52.242;20.940;2023-05-16T01:50:59;12.50;99.90
33594;DHT22;19920;52.242;20.940;2023-05-16T01:53:28;12.50;99.90
33594;DHT22;19920;52.242;20.940;2023-05-16T01:55:56;12.40;99.90
33594;DHT22;19920;52.242;20.940;2023-05-16T01:58:27;12.40;99.90
33594;DHT22;19920;52.242;20.940;2023-05-16T02:01:00;12.50;99.90
33594;DHT22;19920;52.242;20.940;2023-05-16T02:03:26;12.50;99.90
33594;DHT22;19920;52.242;20.940;2023-05-16T02:05:51;12.50;99.90
33594;DHT22;19920;52.242;20.940;2023-05-16T02:08:17;12.50;99.90
33594;DHT22;19920;52.242;20.940;2023-05-16T02:10:43;12.50;99.90
33594;DHT22;19920;52.242;20.940;2023-05-16T02:13:08;12.50;99.90
33594;DHT22;19920;52.242;20.940;2023-05-16T02:15:34;12.50;99.90
33594;DHT22;19920;52.242;20.940;2023-05-16T02:17:59;12.50;99.90
33594;DHT22;19920;52.242;20.940;2023-05-16T02:20:25;12.60;99.90
33594;DHT22;19920;52.242;20.940;2023-05-16T02:22:51;12.60;99.90
33594;DHT22;19920;52.242;20.940;2023-05-16T02:25:16;12.60;99.90
33594;DHT22;19920;52.242;20.940;2023-05-16T02:27:42;12.60;99.90
33594;DHT22;19920;52.242;20.940;2023-05-16T02:30:09;12.60;99.90
33594;DHT22;19920;52.242;20.940;2023-05-16T02:32:37;12.60;99.90
33594;DHT22;19920;52.242;20.940;2023-05-16T02:35:03;12.60;99.90
33594;DHT22;19920;52.242;20.940;2023-05-16T02:37:29;12.60;99.90
33594;DHT22;19920;52.242;20.940;2023-05-16T02:39:54;12.60;99.90
33594;DHT22;19920;52.242;20.940;2023-05-16T02:42:20;12.60;99.90
33594;DHT22;19920;52.242;20.940;2023-05-16T02:44:46;12.60;99.90
33594;DHT22;19920;52.242;20.940;2023-05-16T02:47:11;12.50;99.90
33594;DHT22;19920;52.242;20.940;2023-05-16T02:49:37;12.40;99.90
33594;DHT22;19920;52.242;20.940;2023-05-16T02:52:03;12.40;99.90
33594;DHT22;19920;52.242;20.940;2023-05-16T02:54:29;12.20;99.90
33594;DHT22;19920;52.242;20.940;2023-05-16T02:56:54;12.20;99.90
33594;DHT22;19920;52.242;20.940;2023-05-16T02:59:20;12.10;99.90
33594;DHT22;19920;52.242;20.940;2023-05-16T03:01:45;12.10;99.90
33594;DHT22;19920;52.242;20.940;2023-05-16T03:04:11;11.90;99.90
33594;DHT22;19920;52.242;20.940;2023-05-16T03:06:37;11.90;99.90
33594;DHT22;19920;52.242;20.940;2023-05-16T03:09:02;11.90;99.90
33594;DHT22;19920;52.242;20.940;2023-05-16T03:11:28;11.90;99.90
33594;DHT22;19920;52.242;20.940;2023-05-16T03:13:54;11.80;99.90
33594;DHT22;19920;52.242;20.940;2023-05-16T03:16:19;11.80;99.90
33594;DHT22;19920;52.242;20.940;2023-05-16T03:18:46;11.80;99.90
33594;DHT22;19920;52.242;20.940;2023-05-16T03:21:11;11.80;99.90
33594;DHT22;19920;52.242;20.940;2023-05-16T03:23:37;11.80;99.90
33594;DHT22;19920;52.242;20.940;2023-05-16T03:26:03;11.80;99.90
33594;DHT22;19920;52.242;20.940;2023-05-16T03:28:28;11.90;99.90
33594;DHT22;19920;52.242;20.940;2023-05-16T03:30:54;12.00;99.90
33594;DHT22;19920;52.242;20.940;2023-05-16T03:33:20;12.00;99.90
33594;DHT22;19920;52.242;20.940;2023-05-16T03:35:46;12.00;99.90
33594;DHT22;19920;52.242;20.940;2023-05-16T03:38:12;11.90;99.90
33594;DHT22;19920;52.242;20.940;2023-05-16T03:40:37;11.90;99.90
33594;DHT22;19920;52.242;20.940;2023-05-16T03:43:03;11.90;99.90
33594;DHT22;19920;52.242;20.940;2023-05-16T03:45:29;11.90;99.90
33594;DHT22;19920;52.242;20.940;2023-05-16T03:47:56;11.90;99.90
33594;DHT22;19920;52.242;20.940;2023-05-16T03:50:21;11.90;99.90
33594;DHT22;19920;52.242;20.940;2023-05-16T03:52:47;11.80;99.90
33594;DHT22;19920;52.242;20.940;2023-05-16T03:55:14;11.90;99.90
33594;DHT22;19920;52.242;20.940;2023-05-16T03:57:40;11.90;99.90
33594;DHT22;19920;52.242;20.940;2023-05-16T04:00:09;11.90;99.90
33594;DHT22;19920;52.242;20.940;2023-05-16T04:02:35;11.90;99.90
33594;DHT22;19920;52.242;20.940;2023-05-16T04:05:01;11.90;99.90
33594;DHT22;19920;52.242;20.940;2023-05-16T04:07:27;12.00;99.90
33594;DHT22;19920;52.242;20.940;2023-05-16T04:09:53;12.10;99.90
33594;DHT22;19920;52.242;20.940;2023-05-16T04:12:20;12.10;99.90
33594;DHT22;19920;52.242;20.940;2023-05-16T04:14:46;12.10;99.90
33594;DHT22;19920;52.242;20.940;2023-05-16T04:17:11;12.20;99.90
33594;DHT22;19920;52.242;20.940;2023-05-16T04:19:37;12.20;99.90
33594;DHT22;19920;52.242;20.940;2023-05-16T04:22:03;12.30;99.90
33594;DHT22;19920;52.242;20.940;2023-05-16T04:24:28;12.20;99.90
33594;DHT22;19920;52.242;20.940;2023-05-16T04:26:54;12.30;99.90
33594;DHT22;19920;52.242;20.940;2023-05-16T04:29:20;12.30;99.90
33594;DHT22;19920;52.242;20.940;2023-05-16T04:31:46;12.40;99.90
33594;DHT22;19920;52.242;20.940;2023-05-16T04:34:12;12.40;99.90
33594;DHT22;19920;52.242;20.940;2023-05-16T04:36:38;12.40;99.90
33594;DHT22;19920;52.242;20.940;2023-05-16T04:39:04;12.50;99.90
33594;DHT22;19920;52.242;20.940;2023-05-16T04:41:30;12.50;99.90
33594;DHT22;19920;52.242;20.940;2023-05-16T04:43:56;12.60;99.90
33594;DHT22;19920;52.242;20.940;2023-05-16T04:46:21;12.70;99.90
33594;DHT22;19920;52.242;20.940;2023-05-16T04:48:47;12.70;99.90
33594;DHT22;19920;52.242;20.940;2023-05-16T04:51:13;12.70;99.90
33594;DHT22;19920;52.242;20.940;2023-05-16T04:53:39;12.80;99.90
33594;DHT22;19920;52.242;20.940;2023-05-16T04:56:05;12.90;99.90
33594;DHT22;19920;52.242;20.940;2023-05-16T04:58:31;12.90;99.90
33594;DHT22;19920;52.242;20.940;2023-05-16T05:00:56;13.00;99.90
33594;DHT22;19920;52.242;20.940;2023-05-16T05:03:22;13.10;99.90
33594;DHT22;19920;52.242;20.940;2023-05-16T05:05:48;13.20;99.90
33594;DHT22;19920;52.242;20.940;2023-05-16T05:08:14;13.20;99.90
33594;DHT22;19920;52.242;20.940;2023-05-16T05:10:40;13.30;99.90
33594;DHT22;19920;52.242;20.940;2023-05-16T05:13:06;13.40;99.90
33594;DHT22;19920;52.242;20.940;2023-05-16T05:15:32;13.30;99.90
33594;DHT22;19920;52.242;20.940;2023-05-16T05:17:58;13.40;99.90
33594;DHT22;19920;52.242;20.940;2023-05-16T05:20:23;13.40;99.90
33594;DHT22;19920;52.242;20.940;2023-05-16T05:22:49;13.50;99.90
33594;DHT22;19920;52.242;20.940;2023-05-16T05:25:15;13.60;99.90
33594;DHT22;19920;52.242;20.940;2023-05-16T05:27:40;13.70;99.90
33594;DHT22;19920;52.242;20.940;2023-05-16T05:30:06;13.80;99.90
33594;DHT22;19920;52.242;20.940;2023-05-16T05:32:32;13.80;99.90
33594;DHT22;19920;52.242;20.940;2023-05-16T05:34:58;13.90;99.90
33594;DHT22;19920;52.242;20.940;2023-05-16T05:37:25;13.80;99.90
33594;DHT22;19920;52.242;20.940;2023-05-16T05:39:51;13.90;99.90
33594;DHT22;19920;52.242;20.940;2023-05-16T05:42:17;14.10;99.90
33594;DHT22;19920;52.242;20.940;2023-05-16T05:44:42;14.30;99.90
33594;DHT22;19920;52.242;20.940;2023-05-16T05:47:08;14.30;99.90
33594;DHT22;19920;52.242;20.940;2023-05-16T05:49:33;14.40;99.90
33594;DHT22;19920;52.242;20.940;2023-05-16T05:52:00;14.50;99.90
33594;DHT22;19920;52.242;20.940;2023-05-16T05:54:26;14.40;99.90
33594;DHT22;19920;52.242;20.940;2023-05-16T05:56:52;14.40;99.90
33594;DHT22;19920;52.242;20.940;2023-05-16T05:59:17;14.40;99.90
33594;DHT22;19920;52.242;20.940;2023-05-16T06:01:43;14.40;99.90
33594;DHT22;19920;52.242;20.940;2023-05-16T06:04:09;14.30;99.90
33594;DHT22;19920;52.242;20.940;2023-05-16T06:06:36;14.30;99.90
33594;DHT22;19920;52.242;20.940;2023-05-16T06:09:02;14.30;99.90
33594;DHT22;19920;52.242;20.940;2023-05-16T06:11:27;14.20;99.90
33594;DHT22;19920;52.242;20.940;2023-05-16T06:13:53;14.00;99.90
33594;DHT22;19920;52.242;20.940;2023-05-16T06:16:22;13.90;99.90
33594;DHT22;19920;52.242;20.940;2023-05-16T06:18:48;13.90;99.90
33594;DHT22;19920;52.242;20.940;2023-05-16T06:21:13;13.70;99.90
33594;DHT22;19920;52.242;20.940;2023-05-16T06:23:39;13.60;99.90
33594;DHT22;19920;52.242;20.940;2023-05-16T06:26:05;13.50;99.90
33594;DHT22;19920;52.242;20.940;2023-05-16T06:28:31;13.40;99.90
33594;DHT22;19920;52.242;20.940;2023-05-16T06:30:56;13.30;99.90
33594;DHT22;19920;52.242;20.940;2023-05-16T06:33:22;13.30;99.90
33594;DHT22;19920;52.242;20.940;2023-05-16T06:35:48;13.40;99.90
33594;DHT22;19920;52.242;20.940;2023-05-16T06:38:14;13.40;99.90
33594;DHT22;19920;52.242;20.940;2023-05-16T06:40:40;13.60;99.90
33594;DHT22;19920;52.242;20.940;2023-05-16T06:43:06;13.60;99.90
33594;DHT22;19920;52.242;20.940;2023-05-16T06:45:32;13.60;99.90
33594;DHT22;19920;52.242;20.940;2023-05-16T06:47:57;13.70;99.90
33594;DHT22;19920;52.242;20.940;2023-05-16T06:50:23;13.90;99.90
33594;DHT22;19920;52.242;20.940;2023-05-16T06:52:48;14.00;99.90
33594;DHT22;19920;52.242;20.940;2023-05-16T06:55:14;14.00;99.90
33594;DHT22;19920;52.242;20.940;2023-05-16T06:57:40;14.00;99.90
33594;DHT22;19920;52.242;20.940;2023-05-16T07:00:06;13.90;99.90
33594;DHT22;19920;52.242;20.940;2023-05-16T07:02:32;13.80;99.90
33594;DHT22;19920;52.242;20.940;2023-05-16T07:04:58;13.80;99.90
33594;DHT22;19920;52.242;20.940;2023-05-16T07:07:24;14.00;99.90
33594;DHT22;19920;52.242;20.940;2023-05-16T07:09:49;14.00;99.90
33594;DHT22;19920;52.242;20.940;2023-05-16T07:12:15;14.00;99.90
33594;DHT22;19920;52.242;20.940;2023-05-16T07:14:41;14.00;99.90
33594;DHT22;19920;52.242;20.940;2023-05-16T07:17:08;14.10;99.90
33594;DHT22;19920;52.242;20.940;2023-05-16T07:19:34;14.40;99.90
33594;DHT22;19920;52.242;20.940;2023-05-16T07:21:59;14.50;99.90
33594;DHT22;19920;52.242;20.940;2023-05-16T07:24:25;14.50;99.90
33594;DHT22;19920;52.242;20.940;2023-05-16T07:26:51;14.60;99.90
33594;DHT22;19920;52.242;20.940;2023-05-16T07:29:16;14.60;99.90
33594;DHT22;19920;52.242;20.940;2023-05-16T07:31:42;14.40;99.90
33594;DHT22;19920;52.242;20.940;2023-05-16T07:34:09;14.50;99.90
33594;DHT22;19920;52.242;20.940;2023-05-16T07:36:35;14.50;99.90
33594;DHT22;19920;52.242;20.940;2023-05-16T07:39:01;14.70;99.90
33594;DHT22;19920;52.242;20.940;2023-05-16T07:41:28;14.80;99.90
33594;DHT22;19920;52.242;20.940;2023-05-16T07:43:54;14.90;99.90
33594;DHT22;19920;52.242;20.940;2023-05-16T07:46:19;15.00;99.90
33594;DHT22;19920;52.242;20.940;2023-05-16T07:48:45;15.20;99.90
33594;DHT22;19920;52.242;20.940;2023-05-16T07:51:11;15.30;99.90
33594;DHT22;19920;52.242;20.940;2023-05-16T07:53:36;15.40;99.90
33594;DHT22;19920;52.242;20.940;2023-05-16T07:56:02;15.40;99.90
33594;DHT22;19920;52.242;20.940;2023-05-16T07:58:28;15.40;99.90
33594;DHT22;19920;52.242;20.940;2023-05-16T08:00:53;15.20;99.90
33594;DHT22;19920;52.242;20.940;2023-05-16T08:03:19;15.10;99.90
33594;DHT22;19920;52.242;20.940;2023-05-16T08:05:45;15.10;99.90
33594;DHT22;19920;52.242;20.940;2023-05-16T08:08:10;15.20;99.90
33594;DHT22;19920;52.242;20.940;2023-05-16T08:10:36;15.30;99.90
33594;DHT22;19920;52.242;20.940;2023-05-16T08:13:02;15.50;99.90
33594;DHT22;19920;52.242;20.940;2023-05-16T08:15:29;15.60;99.90
33594;DHT22;19920;52.242;20.940;2023-05-16T08:17:58;15.60;99.90
33594;DHT22;19920;52.242;20.940;2023-05-16T08:20:26;15.60;99.90
33594;DHT22;19920;52.242;20.940;2023-05-16T08:22:53;15.30;99.90
33594;DHT22;19920;52.242;20.940;2023-05-16T08:25:19;15.30;99.90
33594;DHT22;19920;52.242;20.940;2023-05-16T08:27:45;15.60;99.90
33594;DHT22;19920;52.242;20.940;2023-05-16T08:30:11;15.80;99.90
33594;DHT22;19920;52.242;20.940;2023-05-16T08:32:38;16.10;99.90
33594;DHT22;19920;52.242;20.940;2023-05-16T08:35:03;16.30;99.90
33594;DHT22;19920;52.242;20.940;2023-05-16T08:37:29;16.10;99.90
33594;DHT22;19920;52.242;20.940;2023-05-16T08:39:55;15.70;99.90
33594;DHT22;19920;52.242;20.940;2023-05-16T08:42:21;15.90;99.90
33594;DHT22;19920;52.242;20.940;2023-05-16T08:44:46;16.00;99.90
33594;DHT22;19920;52.242;20.940;2023-05-16T08:47:17;15.90;99.90
33594;DHT22;19920;52.242;20.940;2023-05-16T08:49:46;16.00;99.90
33594;DHT22;19920;52.242;20.940;2023-05-16T08:52:13;16.20;99.90
33594;DHT22;19920;52.242;20.940;2023-05-16T08:54:39;16.30;99.90
33594;DHT22;19920;52.242;20.940;2023-05-16T08:57:05;16.50;99.90
33594;DHT22;19920;52.242;20.940;2023-05-16T08:59:33;16.60;99.90
33594;DHT22;19920;52.242;20.940;2023-05-16T09:01:59;16.70;99.90
33594;DHT22;19920;52.242;20.940;2023-05-16T09:04:25;16.80;99.90
33594;DHT22;19920;52.242;20.940;2023-05-16T09:06:52;17.00;99.90
33594;DHT22;19920;52.242;20.940;2023-05-16T09:09:17;17.10;99.90
33594;DHT22;19920;52.242;20.940;2023-05-16T09:11:44;17.40;99.90
33594;DHT22;19920;52.242;20.940;2023-05-16T09:14:10;17.30;99.90
33594;DHT22;19920;52.242;20.940;2023-05-16T09:16:35;17.30;99.90
33594;DHT22;19920;52.242;20.940;2023-05-16T09:19:01;17.10;99.90
33594;DHT22;19920;52.242;20.940;2023-05-16T09:21:29;17.00;99.90
33594;DHT22;19920;52.242;20.940;2023-05-16T09:24:01;17.00;99.90
33594;DHT22;19920;52.242;20.940;2023-05-16T09:26:27;17.00;99.90
33594;DHT22;19920;52.242;20.940;2023-05-16T09:28:53;16.80;99.90
33594;DHT22;19920;52.242;20.940;2023-05-16T09:31:23;16.90;99.90
33594;DHT22;19920;52.242;20.940;2023-05-16T09:33:58;17.00;99.90
33594;DHT22;19920;52.242;20.940;2023-05-16T09:36:24;17.10;99.90
33594;DHT22;19920;52.242;20.940;2023-05-16T09:38:51;16.90;99.90
33594;DHT22;19920;52.242;20.940;2023-05-16T09:41:16;17.00;99.90
33594;DHT22;19920;52.242;20.940;2023-05-16T09:43:43;16.80;99.90
33594;DHT22;19920;52.242;20.940;2023-05-16T09:46:13;16.80;99.90
33594;DHT22;19920;52.242;20.940;2023-05-16T09:48:46;16.70;99.90
33594;DHT22;19920;52.242;20.940;2023-05-16T09:51:12;16.80;99.90
33594;DHT22;19920;52.242;20.940;2023-05-16T09:53:39;17.00;99.90
33594;DHT22;19920;52.242;20.940;2023-05-16T09:56:09;17.10;99.90
33594;DHT22;19920;52.242;20.940;2023-05-16T09:58:36;17.40;99.90
33594;DHT22;19920;52.242;20.940;2023-05-16T10:01:03;17.60;99.90
33594;DHT22;19920;52.242;20.940;2023-05-16T10:03:29;17.50;99.90
33594;DHT22;19920;52.242;20.940;2023-05-16T10:05:55;17.60;99.90
33594;DHT22;19920;52.242;20.940;2023-05-16T10:08:23;17.70;99.90
33594;DHT22;19920;52.242;20.940;2023-05-16T10:10:51;17.80;99.90
33594;DHT22;19920;52.242;20.940;2023-05-16T10:13:27;17.70;99.90
33594;DHT22;19920;52.242;20.940;2023-05-16T10:15:58;17.70;99.90
33594;DHT22;19920;52.242;20.940;2023-05-16T10:18:29;17.60;99.90
33594;DHT22;19920;52.242;20.940;2023-05-16T10:20:56;17.60;99.90
33594;DHT22;19920;52.242;20.940;2023-05-16T10:23:24;17.70;99.90
33594;DHT22;19920;52.242;20.940;2023-05-16T10:25:51;17.80;99.90
33594;DHT22;19920;52.242;20.940;2023-05-16T10:28:16;17.80;99.90
33594;DHT22;19920;52.242;20.940;2023-05-16T10:30:44;17.90;99.90
33594;DHT22;19920;52.242;20.940;2023-05-16T10:33:15;17.60;99.90
33594;DHT22;19920;52.242;20.940;2023-05-16T10:35:42;17.60;99.90
33594;DHT22;19920;52.242;20.940;2023-05-16T10:38:09;17.70;99.90
33594;DHT22;19920;52.242;20.940;2023-05-16T10:40:37;17.60;99.90
33594;DHT22;19920;52.242;20.940;2023-05-16T10:43:05;17.80;99.90
33594;DHT22;19920;52.242;20.940;2023-05-16T10:45:31;17.80;99.90
33594;DHT22;19920;52.242;20.940;2023-05-16T10:47:58;18.10;99.90
33594;DHT22;19920;52.242;20.940;2023-05-16T10:50:37;18.30;99.90
33594;DHT22;19920;52.242;20.940;2023-05-16T10:55:49;18.60;99.90
33594;DHT22;19920;52.242;20.940;2023-05-16T10:58:22;18.60;99.90
33594;DHT22;19920;52.242;20.940;2023-05-16T11:00:48;18.60;99.90
33594;DHT22;19920;52.242;20.940;2023-05-16T11:03:32;18.70;99.90
33594;DHT22;19920;52.242;20.940;2023-05-16T11:06:00;18.60;99.90
33594;DHT22;19920;52.242;20.940;2023-05-16T11:08:26;18.60;99.90
33594;DHT22;19920;52.242;20.940;2023-05-16T11:14:02;18.80;99.90
33594;DHT22;19920;52.242;20.940;2023-05-16T11:16:28;18.90;99.90
33594;DHT22;19920;52.242;20.940;2023-05-16T11:18:54;18.60;99.90
33594;DHT22;19920;52.242;20.940;2023-05-16T11:24:30;18.00;99.90
33594;DHT22;19920;52.242;20.940;2023-05-16T11:26:58;17.90;99.90
33594;DHT22;19920;52.242;20.940;2023-05-16T11:29:25;17.90;99.90
33594;DHT22;19920;52.242;20.940;2023-05-16T11:31:51;18.00;99.90
33594;DHT22;19920;52.242;20.940;2023-05-16T11:34:18;18.00;99.90
33594;DHT22;19920;52.242;20.940;2023-05-16T11:36:43;18.50;99.90
33594;DHT22;19920;52.242;20.940;2023-05-16T11:39:10;18.30;99.90
33594;DHT22;19920;52.242;20.940;2023-05-16T11:41:37;18.40;99.90
33594;DHT22;19920;52.242;20.940;2023-05-16T11:44:03;18.40;99.90
33594;DHT22;19920;52.242;20.940;2023-05-16T11:46:30;18.20;99.90
33594;DHT22;19920;52.242;20.940;2023-05-16T11:48:57;18.20;99.90
33594;DHT22;19920;52.242;20.940;2023-05-16T11:51:23;18.40;99.90
33594;DHT22;19920;52.242;20.940;2023-05-16T11:53:49;18.60;99.90
33594;DHT22;19920;52.242;20.940;2023-05-16T11:56:15;18.90;99.90
33594;DHT22;19920;52.242;20.940;2023-05-16T11:58:41;19.20;99.90
33594;DHT22;19920;52.242;20.940;2023-05-16T12:01:07;19.70;99.90
33594;DHT22;19920;52.242;20.940;2023-05-16T12:03:34;19.80;99.90
33594;DHT22;19920;52.242;20.940;2023-05-16T12:06:01;19.80;99.90
33594;DHT22;19920;52.242;20.940;2023-05-16T12:08:27;20.00;99.90
33594;DHT22;19920;52.242;20.940;2023-05-16T12:10:53;20.00;99.90
33594;DHT22;19920;52.242;20.940;2023-05-16T12:13:20;20.00;99.90
33594;DHT22;19920;52.242;20.940;2023-05-16T12:15:47;20.00;99.90
33594;DHT22;19920;52.242;20.940;2023-05-16T12:18:14;19.90;99.90
33594;DHT22;19920;52.242;20.940;2023-05-16T12:20:40;20.00;99.90
33594;DHT22;19920;52.242;20.940;2023-05-16T12:23:10;20.00;99.90
33594;DHT22;19920;52.242;20.940;2023-05-16T12:25:37;20.10;99.90
33594;DHT22;19920;52.242;20.940;2023-05-16T12:28:08;19.80;99.90
33594;DHT22;19920;52.242;20.940;2023-05-16T12:30:34;19.60;99.90
33594;DHT22;19920;52.242;20.940;2023-05-16T12:33:10;19.20;99.90
33594;DHT22;19920;52.242;20.940;2023-05-16T12:35:38;18.80;99.90
33594;DHT22;19920;52.242;20.940;2023-05-16T12:38:09;18.70;99.90
33594;DHT22;19920;52.242;20.940;2023-05-16T12:40:36;18.70;99.90
33594;DHT22;19920;52.242;20.940;2023-05-16T12:43:04;18.80;99.90
33594;DHT22;19920;52.242;20.940;2023-05-16T12:45:31;18.70;99.90
33594;DHT22;19920;52.242;20.940;2023-05-16T12:48:03;18.60;99.90
33594;DHT22;19920;52.242;20.940;2023-05-16T12:50:32;18.90;99.90
33594;DHT22;19920;52.242;20.940;2023-05-16T12:52:59;19.10;99.90
33594;DHT22;19920;52.242;20.940;2023-05-16T12:55:25;19.30;99.90
33594;DHT22;19920;52.242;20.940;2023-05-16T12:57:51;19.50;99.90
33594;DHT22;19920;52.242;20.940;2023-05-16T13:00:19;20.00;99.90
33594;DHT22;19920;52.242;20.940;2023-05-16T13:02:46;20.20;99.90
33594;DHT22;19920;52.242;20.940;2023-05-16T13:05:11;20.00;99.90
33594;DHT22;19920;52.242;20.940;2023-05-16T13:07:37;20.10;99.90
33594;DHT22;19920;52.242;20.940;2023-05-16T13:10:06;20.20;99.90
33594;DHT22;19920;52.242;20.940;2023-05-16T13:12:35;20.10;99.90
33594;DHT22;19920;52.242;20.940;2023-05-16T13:15:01;20.00;99.90
33594;DHT22;19920;52.242;20.940;2023-05-16T13:17:27;19.90;99.90
33594;DHT22;19920;52.242;20.940;2023-05-16T13:19:55;20.00;99.90
33594;DHT22;19920;52.242;20.940;2023-05-16T13:22:20;20.40;99.90
33594;DHT22;19920;52.242;20.940;2023-05-16T13:24:46;20.50;99.90
33594;DHT22;19920;52.242;20.940;2023-05-16T13:27:15;20.90;99.90
33594;DHT22;19920;52.242;20.940;2023-05-16T13:29:40;21.40;99.90
33594;DHT22;19920;52.242;20.940;2023-05-16T13:32:06;21.60;99.90
33594;DHT22;19920;52.242;20.940;2023-05-16T13:34:32;21.70;99.90
33594;DHT22;19920;52.242;20.940;2023-05-16T13:36:58;22.00;99.90
33594;DHT22;19920;52.242;20.940;2023-05-16T13:39:24;21.90;99.90
33594;DHT22;19920;52.242;20.940;2023-05-16T13:41:50;21.50;99.90
33594;DHT22;19920;52.242;20.940;2023-05-16T13:44:16;21.70;99.90
33594;DHT22;19920;52.242;20.940;2023-05-16T13:46:42;21.80;99.90
33594;DHT22;19920;52.242;20.940;2023-05-16T13:49:08;21.90;99.90
33594;DHT22;19920;52.242;20.940;2023-05-16T13:51:33;22.00;99.90
33594;DHT22;19920;52.242;20.940;2023-05-16T13:53:59;22.00;99.90
33594;DHT22;19920;52.242;20.940;2023-05-16T13:56:25;21.90;99.90
33594;DHT22;19920;52.242;20.940;2023-05-16T13:58:51;21.30;99.90
33594;DHT22;19920;52.242;20.940;2023-05-16T14:01:16;21.20;99.90
33594;DHT22;19920;52.242;20.940;2023-05-16T14:03:42;20.80;99.90
33594;DHT22;19920;52.242;20.940;2023-05-16T14:06:08;21.00;99.90
33594;DHT22;19920;52.242;20.940;2023-05-16T14:08:34;21.30;99.90
33594;DHT22;19920;52.242;20.940;2023-05-16T14:11:00;21.30;99.90
33594;DHT22;19920;52.242;20.940;2023-05-16T14:13:26;21.30;99.90
33594;DHT22;19920;52.242;20.940;2023-05-16T14:15:51;21.20;99.90
33594;DHT22;19920;52.242;20.940;2023-05-16T14:18:17;21.00;99.90
33594;DHT22;19920;52.242;20.940;2023-05-16T14:20:42;20.70;99.90
33594;DHT22;19920;52.242;20.940;2023-05-16T14:23:08;20.70;99.90
33594;DHT22;19920;52.242;20.940;2023-05-16T14:25:34;20.50;99.90
33594;DHT22;19920;52.242;20.940;2023-05-16T14:27:59;20.50;99.90
33594;DHT22;19920;52.242;20.940;2023-05-16T14:30:25;20.80;99.90
33594;DHT22;19920;52.242;20.940;2023-05-16T14:32:51;21.00;99.90
33594;DHT22;19920;52.242;20.940;2023-05-16T14:35:17;20.90;99.90
33594;DHT22;19920;52.242;20.940;2023-05-16T14:37:42;20.80;99.90
33594;DHT22;19920;52.242;20.940;2023-05-16T14:40:08;20.80;99.90
33594;DHT22;19920;52.242;20.940;2023-05-16T14:42:34;20.40;99.90
33594;DHT22;19920;52.242;20.940;2023-05-16T14:45:00;20.50;99.90
33594;DHT22;19920;52.242;20.940;2023-05-16T14:47:26;20.20;99.90
33594;DHT22;19920;52.242;20.940;2023-05-16T14:49:53;20.30;99.90
33594;DHT22;19920;52.242;20.940;2023-05-16T14:52:19;20.30;99.90
33594;DHT22;19920;52.242;20.940;2023-05-16T14:54:45;20.50;99.90
33594;DHT22;19920;52.242;20.940;2023-05-16T14:57:10;20.80;99.90
33594;DHT22;19920;52.242;20.940;2023-05-16T14:59:36;20.90;99.90
33594;DHT22;19920;52.242;20.940;2023-05-16T15:02:02;21.00;99.90
33594;DHT22;19920;52.242;20.940;2023-05-16T15:04:28;20.90;99.90
33594;DHT22;19920;52.242;20.940;2023-05-16T15:06:54;20.70;99.90
33594;DHT22;19920;52.242;20.940;2023-05-16T15:09:20;20.80;99.90
33594;DHT22;19920;52.242;20.940;2023-05-16T15:11:45;21.00;99.90
33594;DHT22;19920;52.242;20.940;2023-05-16T15:14:11;21.00;99.90
33594;DHT22;19920;52.242;20.940;2023-05-16T15:16:37;21.00;99.90
33594;DHT22;19920;52.242;20.940;2023-05-16T15:19:02;21.10;99.90
33594;DHT22;19920;52.242;20.940;2023-05-16T15:21:28;20.90;99.90
33594;DHT22;19920;52.242;20.940;2023-05-16T15:23:55;20.70;99.90
33594;DHT22;19920;52.242;20.940;2023-05-16T15:26:21;20.70;99.90
33594;DHT22;19920;52.242;20.940;2023-05-16T15:28:47;20.40;99.90
33594;DHT22;19920;52.242;20.940;2023-05-16T15:31:12;20.20;99.90
33594;DHT22;19920;52.242;20.940;2023-05-16T15:33:38;20.20;99.90